sensor_id;sensor_type;location;lat;lon;timestamp;P1;durP1;ratioP1;P2;durP2;ratioP2
6739;SDS011;3407;49.882;10.920;2022-11-10T00:01:02;6.77;;;4.70;;
6739;SDS011;3407;49.882;10.920;2022-11-10T00:06:05;7.00;;;4.73;;
6739;SDS011;3407;49.882;10.920;2022-11-10T00:11:03;8.53;;;4.90;;
6739;SDS011;3407;49.882;10.920;2022-11-10T00:16:01;4.93;;;4.43;;
6739;SDS011;3407;49.882;10.920;2022-11-10T00:21:16;9.77;;;5.17;;
6739;SDS011;3407;49.882;10.920;2022-11-10T00:26:14;8.27;;;5.00;;
6739;SDS011;3407;49.882;10.920;2022-11-10T00:31:12;7.50;;;5.33;;
6739;SDS011;3407;49.882;10.920;2022-11-10T00:36:07;5.67;;;4.90;;
6739;SDS011;3407;49.882;10.920;2022-11-10T00:41:03;7.47;;;6.73;;
6739;SDS011;3407;49.882;10.920;2022-11-10T00:45:59;12.13;;;8.67;;
6739;SDS011;3407;49.882;10.920;2022-11-10T00:50:55;13.57;;;8.40;;
6739;SDS011;3407;49.882;10.920;2022-11-10T00:55:50;12.93;;;8.97;;
6739;SDS011;3407;49.882;10.920;2022-11-10T01:00:46;10.00;;;6.27;;
6739;SDS011;3407;49.882;10.920;2022-11-10T01:05:41;12.33;;;7.33;;
6739;SDS011;3407;49.882;10.920;2022-11-10T01:10:38;8.53;;;6.00;;
6739;SDS011;3407;49.882;10.920;2022-11-10T01:15:33;7.47;;;5.27;;
6739;SDS011;3407;49.882;10.920;2022-11-10T01:20:33;11.87;;;6.27;;
6739;SDS011;3407;49.882;10.920;2022-11-10T01:25:29;9.37;;;5.73;;
6739;SDS011;3407;49.882;10.920;2022-11-10T01:30:25;6.50;;;4.87;;
6739;SDS011;3407;49.882;10.920;2022-11-10T01:35:20;5.50;;;4.90;;
6739;SDS011;3407;49.882;10.920;2022-11-10T01:40:16;10.00;;;5.67;;
6739;SDS011;3407;49.882;10.920;2022-11-10T01:50:19;9.60;;;5.53;;
6739;SDS011;3407;49.882;10.920;2022-11-10T01:55:18;7.17;;;5.17;;
6739;SDS011;3407;49.882;10.920;2022-11-10T02:00:15;7.40;;;4.67;;
6739;SDS011;3407;49.882;10.920;2022-11-10T02:05:11;6.50;;;5.37;;
6739;SDS011;3407;49.882;10.920;2022-11-10T02:10:17;5.27;;;4.67;;
6739;SDS011;3407;49.882;10.920;2022-11-10T02:15:14;6.27;;;4.83;;
6739;SDS011;3407;49.882;10.920;2022-11-10T02:20:12;7.43;;;5.03;;
6739;SDS011;3407;49.882;10.920;2022-11-10T02:25:09;7.70;;;4.83;;
6739;SDS011;3407;49.882;10.920;2022-11-10T02:30:09;6.90;;;5.00;;
6739;SDS011;3407;49.882;10.920;2022-11-10T02:35:05;7.00;;;4.60;;
6739;SDS011;3407;49.882;10.920;2022-11-10T02:40:02;7.17;;;5.03;;
6739;SDS011;3407;49.882;10.920;2022-11-10T02:44:58;9.50;;;4.53;;
6739;SDS011;3407;49.882;10.920;2022-11-10T02:49:53;9.10;;;4.63;;
6739;SDS011;3407;49.882;10.920;2022-11-10T02:54:49;7.17;;;4.77;;
6739;SDS011;3407;49.882;10.920;2022-11-10T02:59:44;6.20;;;4.50;;
6739;SDS011;3407;49.882;10.920;2022-11-10T03:04:40;7.20;;;4.27;;
6739;SDS011;3407;49.882;10.920;2022-11-10T03:09:35;9.10;;;4.60;;
6739;SDS011;3407;49.882;10.920;2022-11-10T03:14:31;4.70;;;4.20;;
6739;SDS011;3407;49.882;10.920;2022-11-10T03:19:26;7.67;;;4.43;;
6739;SDS011;3407;49.882;10.920;2022-11-10T03:24:22;7.27;;;4.30;;
6739;SDS011;3407;49.882;10.920;2022-11-10T03:29:17;6.23;;;4.13;;
6739;SDS011;3407;49.882;10.920;2022-11-10T03:34:13;9.47;;;4.10;;
6739;SDS011;3407;49.882;10.920;2022-11-10T03:39:08;6.53;;;4.93;;
6739;SDS011;3407;49.882;10.920;2022-11-10T03:44:04;4.10;;;3.73;;
6739;SDS011;3407;49.882;10.920;2022-11-10T03:49:00;5.07;;;3.80;;
6739;SDS011;3407;49.882;10.920;2022-11-10T03:53:55;11.23;;;6.03;;
6739;SDS011;3407;49.882;10.920;2022-11-10T03:58:51;14.30;;;5.63;;
6739;SDS011;3407;49.882;10.920;2022-11-10T04:03:46;9.50;;;4.83;;
6739;SDS011;3407;49.882;10.920;2022-11-10T04:08:42;5.73;;;4.53;;
6739;SDS011;3407;49.882;10.920;2022-11-10T04:13:53;5.47;;;4.97;;
6739;SDS011;3407;49.882;10.920;2022-11-10T04:19:07;9.13;;;4.13;;
6739;SDS011;3407;49.882;10.920;2022-11-10T04:24:02;4.87;;;4.03;;
6739;SDS011;3407;49.882;10.920;2022-11-10T04:29:00;5.40;;;4.33;;
6739;SDS011;3407;49.882;10.920;2022-11-10T04:33:57;5.00;;;4.60;;
6739;SDS011;3407;49.882;10.920;2022-11-10T04:38:53;4.37;;;3.70;;
6739;SDS011;3407;49.882;10.920;2022-11-10T04:43:52;4.10;;;3.70;;
6739;SDS011;3407;49.882;10.920;2022-11-10T04:48:48;5.10;;;3.70;;
6739;SDS011;3407;49.882;10.920;2022-11-10T04:53:44;8.80;;;4.23;;
6739;SDS011;3407;49.882;10.920;2022-11-10T04:58:40;5.47;;;4.27;;
6739;SDS011;3407;49.882;10.920;2022-11-10T05:03:36;6.60;;;4.43;;
6739;SDS011;3407;49.882;10.920;2022-11-10T05:08:31;11.17;;;6.57;;
6739;SDS011;3407;49.882;10.920;2022-11-10T05:13:27;8.27;;;4.60;;
6739;SDS011;3407;49.882;10.920;2022-11-10T05:18:23;8.13;;;4.43;;
6739;SDS011;3407;49.882;10.920;2022-11-10T05:23:19;6.57;;;4.27;;
6739;SDS011;3407;49.882;10.920;2022-11-10T05:28:33;4.27;;;3.87;;
6739;SDS011;3407;49.882;10.920;2022-11-10T05:33:29;6.03;;;4.90;;
6739;SDS011;3407;49.882;10.920;2022-11-10T05:38:25;6.00;;;4.53;;
6739;SDS011;3407;49.882;10.920;2022-11-10T05:43:20;5.93;;;4.43;;
6739;SDS011;3407;49.882;10.920;2022-11-10T05:48:16;5.47;;;4.50;;
6739;SDS011;3407;49.882;10.920;2022-11-10T05:53:12;7.83;;;4.87;;
6739;SDS011;3407;49.882;10.920;2022-11-10T05:58:07;9.63;;;4.33;;
6739;SDS011;3407;49.882;10.920;2022-11-10T06:03:04;6.57;;;4.90;;
6739;SDS011;3407;49.882;10.920;2022-11-10T06:08:03;10.70;;;4.70;;
6739;SDS011;3407;49.882;10.920;2022-11-10T06:13:00;6.23;;;4.33;;
6739;SDS011;3407;49.882;10.920;2022-11-10T06:17:56;5.77;;;4.67;;
6739;SDS011;3407;49.882;10.920;2022-11-10T06:22:59;6.50;;;4.77;;
6739;SDS011;3407;49.882;10.920;2022-11-10T06:27:55;6.80;;;5.20;;
6739;SDS011;3407;49.882;10.920;2022-11-10T06:32:51;6.47;;;5.47;;
6739;SDS011;3407;49.882;10.920;2022-11-10T06:42:59;6.53;;;5.70;;
6739;SDS011;3407;49.882;10.920;2022-11-10T06:47:59;11.07;;;5.70;;
6739;SDS011;3407;49.882;10.920;2022-11-10T06:52:58;7.07;;;5.90;;
6739;SDS011;3407;49.882;10.920;2022-11-10T06:57:54;13.97;;;5.00;;
6739;SDS011;3407;49.882;10.920;2022-11-10T07:03:06;11.53;;;5.73;;
6739;SDS011;3407;49.882;10.920;2022-11-10T07:08:08;7.57;;;5.57;;
6739;SDS011;3407;49.882;10.920;2022-11-10T07:13:08;8.10;;;5.93;;
6739;SDS011;3407;49.882;10.920;2022-11-10T07:18:04;6.13;;;5.43;;
6739;SDS011;3407;49.882;10.920;2022-11-10T07:23:03;8.93;;;5.70;;
6739;SDS011;3407;49.882;10.920;2022-11-10T07:28:02;8.77;;;6.00;;
6739;SDS011;3407;49.882;10.920;2022-11-10T07:33:06;8.20;;;5.50;;
6739;SDS011;3407;49.882;10.920;2022-11-10T07:38:08;8.23;;;5.63;;
6739;SDS011;3407;49.882;10.920;2022-11-10T07:43:05;10.83;;;6.50;;
6739;SDS011;3407;49.882;10.920;2022-11-10T07:48:01;11.27;;;6.43;;
6739;SDS011;3407;49.882;10.920;2022-11-10T07:53:05;8.60;;;6.47;;
6739;SDS011;3407;49.882;10.920;2022-11-10T07:58:05;8.40;;;5.83;;
6739;SDS011;3407;49.882;10.920;2022-11-10T08:03:02;6.53;;;5.00;;
6739;SDS011;3407;49.882;10.920;2022-11-10T08:08:01;8.63;;;5.33;;
6739;SDS011;3407;49.882;10.920;2022-11-10T08:13:01;12.10;;;6.17;;
6739;SDS011;3407;49.882;10.920;2022-11-10T08:22:55;7.43;;;5.87;;
6739;SDS011;3407;49.882;10.920;2022-11-10T08:28:00;8.80;;;5.37;;
6739;SDS011;3407;49.882;10.920;2022-11-10T08:32:58;8.03;;;6.77;;
6739;SDS011;3407;49.882;10.920;2022-11-10T08:37:55;8.67;;;6.53;;
6739;SDS011;3407;49.882;10.920;2022-11-10T08:42:57;8.20;;;6.47;;
6739;SDS011;3407;49.882;10.920;2022-11-10T08:47:57;12.03;;;6.97;;
6739;SDS011;3407;49.882;10.920;2022-11-10T08:52:54;8.20;;;6.87;;
6739;SDS011;3407;49.882;10.920;2022-11-10T08:57:49;12.37;;;6.77;;
6739;SDS011;3407;49.882;10.920;2022-11-10T09:02:45;13.33;;;7.90;;
6739;SDS011;3407;49.882;10.920;2022-11-10T09:07:41;12.60;;;7.77;;
6739;SDS011;3407;49.882;10.920;2022-11-10T09:12:38;13.50;;;7.57;;
6739;SDS011;3407;49.882;10.920;2022-11-10T09:17:35;10.40;;;7.13;;
6739;SDS011;3407;49.882;10.920;2022-11-10T09:22:33;11.40;;;7.27;;
6739;SDS011;3407;49.882;10.920;2022-11-10T09:27:29;13.20;;;6.90;;
6739;SDS011;3407;49.882;10.920;2022-11-10T09:32:28;7.40;;;5.83;;
6739;SDS011;3407;49.882;10.920;2022-11-10T09:37:26;8.60;;;6.00;;
6739;SDS011;3407;49.882;10.920;2022-11-10T09:42:26;6.53;;;5.30;;
6739;SDS011;3407;49.882;10.920;2022-11-10T09:47:40;8.37;;;5.57;;
6739;SDS011;3407;49.882;10.920;2022-11-10T09:52:41;9.33;;;5.50;;
6739;SDS011;3407;49.882;10.920;2022-11-10T09:57:39;7.63;;;4.67;;
6739;SDS011;3407;49.882;10.920;2022-11-10T10:02:39;5.93;;;4.50;;
6739;SDS011;3407;49.882;10.920;2022-11-10T10:07:45;6.40;;;4.07;;
6739;SDS011;3407;49.882;10.920;2022-11-10T10:12:48;8.67;;;3.73;;
6739;SDS011;3407;49.882;10.920;2022-11-10T10:23:32;10.97;;;3.40;;
6739;SDS011;3407;49.882;10.920;2022-11-10T10:28:32;6.33;;;3.27;;
6739;SDS011;3407;49.882;10.920;2022-11-10T10:33:32;11.57;;;3.20;;
6739;SDS011;3407;49.882;10.920;2022-11-10T10:38:31;6.80;;;3.83;;
6739;SDS011;3407;49.882;10.920;2022-11-10T10:43:30;7.90;;;3.13;;
6739;SDS011;3407;49.882;10.920;2022-11-10T10:48:28;3.60;;;2.60;;
6739;SDS011;3407;49.882;10.920;2022-11-10T10:53:24;10.13;;;3.00;;
6739;SDS011;3407;49.882;10.920;2022-11-10T10:58:30;9.97;;;2.70;;
6739;SDS011;3407;49.882;10.920;2022-11-10T11:03:43;8.20;;;2.70;;
6739;SDS011;3407;49.882;10.920;2022-11-10T11:19:11;6.63;;;2.97;;
6739;SDS011;3407;49.882;10.920;2022-11-10T11:29:54;5.07;;;2.77;;
6739;SDS011;3407;49.882;10.920;2022-11-10T11:40:23;6.33;;;2.20;;
6739;SDS011;3407;49.882;10.920;2022-11-10T11:50:54;4.53;;;2.03;;
6739;SDS011;3407;49.882;10.920;2022-11-10T11:56:03;5.23;;;1.63;;
6739;SDS011;3407;49.882;10.920;2022-11-10T12:11:20;3.00;;;1.77;;
6739;SDS011;3407;49.882;10.920;2022-11-10T12:16:33;6.80;;;2.30;;
6739;SDS011;3407;49.882;10.920;2022-11-10T12:21:38;5.90;;;2.00;;
6739;SDS011;3407;49.882;10.920;2022-11-10T12:26:51;3.43;;;1.60;;
6739;SDS011;3407;49.882;10.920;2022-11-10T12:32:05;3.80;;;1.73;;
6739;SDS011;3407;49.882;10.920;2022-11-10T12:37:12;3.10;;;1.60;;
6739;SDS011;3407;49.882;10.920;2022-11-10T12:42:17;5.10;;;1.93;;
6739;SDS011;3407;49.882;10.920;2022-11-10T12:47:18;5.97;;;2.23;;
6739;SDS011;3407;49.882;10.920;2022-11-10T12:52:39;3.20;;;1.73;;
6739;SDS011;3407;49.882;10.920;2022-11-10T12:57:38;2.23;;;1.70;;
6739;SDS011;3407;49.882;10.920;2022-11-10T13:02:38;4.77;;;2.23;;
6739;SDS011;3407;49.882;10.920;2022-11-10T13:07:45;6.90;;;2.50;;
6739;SDS011;3407;49.882;10.920;2022-11-10T13:17:57;5.33;;;2.50;;
6739;SDS011;3407;49.882;10.920;2022-11-10T13:22:53;7.67;;;3.63;;
6739;SDS011;3407;49.882;10.920;2022-11-10T13:27:49;4.37;;;1.83;;
6739;SDS011;3407;49.882;10.920;2022-11-10T13:32:45;3.53;;;2.13;;
6739;SDS011;3407;49.882;10.920;2022-11-10T13:37:42;2.20;;;1.97;;
6739;SDS011;3407;49.882;10.920;2022-11-10T13:42:40;5.33;;;2.23;;
6739;SDS011;3407;49.882;10.920;2022-11-10T13:47:38;5.47;;;2.10;;
6739;SDS011;3407;49.882;10.920;2022-11-10T13:57:56;2.90;;;1.93;;
6739;SDS011;3407;49.882;10.920;2022-11-10T14:08:17;7.80;;;1.93;;
6739;SDS011;3407;49.882;10.920;2022-11-10T14:13:27;4.97;;;2.30;;
6739;SDS011;3407;49.882;10.920;2022-11-10T14:18:39;4.80;;;1.67;;
6739;SDS011;3407;49.882;10.920;2022-11-10T14:24:06;2.20;;;1.70;;
6739;SDS011;3407;49.882;10.920;2022-11-10T14:29:19;3.77;;;1.60;;
6739;SDS011;3407;49.882;10.920;2022-11-10T14:34:32;3.73;;;1.40;;
6739;SDS011;3407;49.882;10.920;2022-11-10T14:39:39;4.90;;;2.27;;
6739;SDS011;3407;49.882;10.920;2022-11-10T14:44:35;5.33;;;2.13;;
6739;SDS011;3407;49.882;10.920;2022-11-10T14:49:31;4.00;;;2.17;;
6739;SDS011;3407;49.882;10.920;2022-11-10T14:54:26;4.73;;;2.00;;
6739;SDS011;3407;49.882;10.920;2022-11-10T14:59:22;4.43;;;1.97;;
6739;SDS011;3407;49.882;10.920;2022-11-10T15:04:21;2.43;;;1.90;;
6739;SDS011;3407;49.882;10.920;2022-11-10T15:09:29;5.20;;;2.03;;
6739;SDS011;3407;49.882;10.920;2022-11-10T15:19:28;5.57;;;2.33;;
6739;SDS011;3407;49.882;10.920;2022-11-10T15:24:25;2.77;;;2.47;;
6739;SDS011;3407;49.882;10.920;2022-11-10T15:29:21;3.23;;;2.70;;
6739;SDS011;3407;49.882;10.920;2022-11-10T15:39:43;10.73;;;3.37;;
6739;SDS011;3407;49.882;10.920;2022-11-10T15:44:43;7.23;;;3.40;;
6739;SDS011;3407;49.882;10.920;2022-11-10T15:49:40;5.10;;;3.20;;
6739;SDS011;3407;49.882;10.920;2022-11-10T15:54:37;6.70;;;3.60;;
6739;SDS011;3407;49.882;10.920;2022-11-10T15:59:33;7.20;;;4.67;;
6739;SDS011;3407;49.882;10.920;2022-11-10T16:04:31;7.93;;;5.23;;
6739;SDS011;3407;49.882;10.920;2022-11-10T16:09:27;11.80;;;4.70;;
6739;SDS011;3407;49.882;10.920;2022-11-10T16:14:23;14.20;;;8.93;;
6739;SDS011;3407;49.882;10.920;2022-11-10T16:19:18;13.10;;;4.73;;
6739;SDS011;3407;49.882;10.920;2022-11-10T16:24:14;9.00;;;3.97;;
6739;SDS011;3407;49.882;10.920;2022-11-10T16:29:10;8.37;;;4.13;;
6739;SDS011;3407;49.882;10.920;2022-11-10T16:34:09;7.40;;;4.67;;
6739;SDS011;3407;49.882;10.920;2022-11-10T16:39:11;4.23;;;2.93;;
6739;SDS011;3407;49.882;10.920;2022-11-10T16:44:09;8.63;;;3.63;;
6739;SDS011;3407;49.882;10.920;2022-11-10T16:49:16;6.13;;;4.80;;
6739;SDS011;3407;49.882;10.920;2022-11-10T16:54:20;9.03;;;5.77;;
6739;SDS011;3407;49.882;10.920;2022-11-10T16:59:15;6.53;;;3.93;;
6739;SDS011;3407;49.882;10.920;2022-11-10T17:04:11;5.70;;;4.23;;
6739;SDS011;3407;49.882;10.920;2022-11-10T17:14:11;8.23;;;3.63;;
6739;SDS011;3407;49.882;10.920;2022-11-10T17:19:09;8.50;;;5.33;;
6739;SDS011;3407;49.882;10.920;2022-11-10T17:24:15;8.90;;;5.20;;
6739;SDS011;3407;49.882;10.920;2022-11-10T17:29:21;8.97;;;5.63;;
6739;SDS011;3407;49.882;10.920;2022-11-10T17:34:18;7.67;;;5.43;;
6739;SDS011;3407;49.882;10.920;2022-11-10T17:39:13;11.67;;;4.80;;
6739;SDS011;3407;49.882;10.920;2022-11-10T17:44:13;9.63;;;5.53;;
6739;SDS011;3407;49.882;10.920;2022-11-10T17:49:10;12.73;;;8.50;;
6739;SDS011;3407;49.882;10.920;2022-11-10T17:54:09;9.17;;;6.10;;
6739;SDS011;3407;49.882;10.920;2022-11-10T17:59:07;12.73;;;7.60;;
6739;SDS011;3407;49.882;10.920;2022-11-10T18:04:02;9.33;;;6.70;;
6739;SDS011;3407;49.882;10.920;2022-11-10T18:08:58;8.53;;;6.40;;
6739;SDS011;3407;49.882;10.920;2022-11-10T18:13:53;12.70;;;6.80;;
6739;SDS011;3407;49.882;10.920;2022-11-10T18:18:49;12.77;;;8.00;;
6739;SDS011;3407;49.882;10.920;2022-11-10T18:23:44;10.73;;;6.97;;
6739;SDS011;3407;49.882;10.920;2022-11-10T18:28:40;16.13;;;7.50;;
6739;SDS011;3407;49.882;10.920;2022-11-10T18:33:37;13.80;;;7.90;;
6739;SDS011;3407;49.882;10.920;2022-11-10T18:38:33;16.27;;;8.90;;
6739;SDS011;3407;49.882;10.920;2022-11-10T18:43:28;11.23;;;8.13;;
6739;SDS011;3407;49.882;10.920;2022-11-10T18:48:24;8.47;;;6.00;;
6739;SDS011;3407;49.882;10.920;2022-11-10T18:53:19;8.93;;;5.10;;
6739;SDS011;3407;49.882;10.920;2022-11-10T18:58:15;7.97;;;6.00;;
6739;SDS011;3407;49.882;10.920;2022-11-10T19:03:10;14.67;;;7.83;;
6739;SDS011;3407;49.882;10.920;2022-11-10T19:08:07;16.90;;;11.77;;
6739;SDS011;3407;49.882;10.920;2022-11-10T19:13:02;11.80;;;6.53;;
6739;SDS011;3407;49.882;10.920;2022-11-10T19:17:58;9.97;;;5.97;;
6739;SDS011;3407;49.882;10.920;2022-11-10T19:22:53;13.67;;;9.63;;
6739;SDS011;3407;49.882;10.920;2022-11-10T19:27:49;9.23;;;8.07;;
6739;SDS011;3407;49.882;10.920;2022-11-10T19:32:44;9.63;;;6.43;;
6739;SDS011;3407;49.882;10.920;2022-11-10T19:37:40;10.70;;;6.80;;
6739;SDS011;3407;49.882;10.920;2022-11-10T19:42:35;12.07;;;7.23;;
6739;SDS011;3407;49.882;10.920;2022-11-10T19:47:31;15.97;;;8.70;;
6739;SDS011;3407;49.882;10.920;2022-11-10T19:52:26;9.27;;;7.27;;
6739;SDS011;3407;49.882;10.920;2022-11-10T19:57:23;11.63;;;7.90;;
6739;SDS011;3407;49.882;10.920;2022-11-10T20:02:18;19.77;;;11.67;;
6739;SDS011;3407;49.882;10.920;2022-11-10T20:07:14;15.57;;;9.73;;
6739;SDS011;3407;49.882;10.920;2022-11-10T20:12:28;9.03;;;7.50;;
6739;SDS011;3407;49.882;10.920;2022-11-10T20:17:24;10.20;;;7.97;;
6739;SDS011;3407;49.882;10.920;2022-11-10T20:22:19;11.20;;;7.43;;
6739;SDS011;3407;49.882;10.920;2022-11-10T20:27:15;7.07;;;5.33;;
6739;SDS011;3407;49.882;10.920;2022-11-10T20:32:10;10.23;;;6.77;;
6739;SDS011;3407;49.882;10.920;2022-11-10T20:37:06;11.13;;;7.43;;
6739;SDS011;3407;49.882;10.920;2022-11-10T20:42:01;11.73;;;7.60;;
6739;SDS011;3407;49.882;10.920;2022-11-10T20:46:57;15.77;;;8.37;;
6739;SDS011;3407;49.882;10.920;2022-11-10T20:51:52;19.27;;;9.10;;
6739;SDS011;3407;49.882;10.920;2022-11-10T20:56:53;10.03;;;7.30;;
6739;SDS011;3407;49.882;10.920;2022-11-10T21:01:49;12.80;;;8.37;;
6739;SDS011;3407;49.882;10.920;2022-11-10T21:06:44;21.50;;;9.40;;
6739;SDS011;3407;49.882;10.920;2022-11-10T21:11:40;19.87;;;12.43;;
6739;SDS011;3407;49.882;10.920;2022-11-10T21:16:54;18.90;;;10.87;;
6739;SDS011;3407;49.882;10.920;2022-11-10T21:21:49;25.43;;;13.70;;
6739;SDS011;3407;49.882;10.920;2022-11-10T21:26:46;13.97;;;10.77;;
6739;SDS011;3407;49.882;10.920;2022-11-10T21:31:43;18.93;;;10.53;;
6739;SDS011;3407;49.882;10.920;2022-11-10T21:36:38;14.90;;;9.90;;
6739;SDS011;3407;49.882;10.920;2022-11-10T21:41:34;17.60;;;10.17;;
6739;SDS011;3407;49.882;10.920;2022-11-10T21:46:29;27.47;;;12.10;;
6739;SDS011;3407;49.882;10.920;2022-11-10T21:51:25;18.13;;;10.90;;
6739;SDS011;3407;49.882;10.920;2022-11-10T21:56:20;20.57;;;11.50;;
6739;SDS011;3407;49.882;10.920;2022-11-10T22:01:16;10.07;;;8.50;;
6739;SDS011;3407;49.882;10.920;2022-11-10T22:06:13;12.00;;;8.70;;
6739;SDS011;3407;49.882;10.920;2022-11-10T22:11:11;12.37;;;8.73;;
6739;SDS011;3407;49.882;10.920;2022-11-10T22:16:27;32.53;;;13.67;;
6739;SDS011;3407;49.882;10.920;2022-11-10T22:21:59;15.37;;;8.50;;
6739;SDS011;3407;49.882;10.920;2022-11-10T22:26:58;22.57;;;10.40;;
6739;SDS011;3407;49.882;10.920;2022-11-10T22:31:54;31.30;;;14.10;;
6739;SDS011;3407;49.882;10.920;2022-11-10T22:36:50;29.37;;;14.20;;
6739;SDS011;3407;49.882;10.920;2022-11-10T22:41:47;19.47;;;12.33;;
6739;SDS011;3407;49.882;10.920;2022-11-10T22:47:01;22.50;;;13.23;;
6739;SDS011;3407;49.882;10.920;2022-11-10T22:51:57;18.07;;;10.53;;
6739;SDS011;3407;49.882;10.920;2022-11-10T22:56:52;13.17;;;9.10;;
6739;SDS011;3407;49.882;10.920;2022-11-10T23:01:48;13.77;;;8.17;;
6739;SDS011;3407;49.882;10.920;2022-11-10T23:06:43;18.00;;;8.17;;
6739;SDS011;3407;49.882;10.920;2022-11-10T23:11:39;10.43;;;7.87;;
6739;SDS011;3407;49.882;10.920;2022-11-10T23:16:34;9.80;;;7.67;;
6739;SDS011;3407;49.882;10.920;2022-11-10T23:21:30;10.80;;;7.13;;
6739;SDS011;3407;49.882;10.920;2022-11-10T23:26:26;11.23;;;6.90;;
6739;SDS011;3407;49.882;10.920;2022-11-10T23:31:27;11.97;;;6.30;;
6739;SDS011;3407;49.882;10.920;2022-11-10T23:36:24;15.87;;;8.23;;
6739;SDS011;3407;49.882;10.920;2022-11-10T23:41:20;13.07;;;8.30;;
6739;SDS011;3407;49.882;10.920;2022-11-10T23:46:22;13.33;;;9.50;;
6739;SDS011;3407;49.882;10.920;2022-11-10T23:51:18;11.73;;;8.40;;
6739;SDS011;3407;49.882;10.920;2022-11-10T23:56:13;10.50;;;8.20;;
